EWG5ZA LEPA-EDLP
Flight info
| Callsign | EWG5ZA |
|---|---|
| Flight time | 2h 5m |
| Altitude | 36000 |
| Route | GALAT5A GALAT DCT RODRA DCT VNV DCT ANTON DCT BISES DCT SADUR DCT CAVES DCT LATRO DCT OLOXO DCT OKABI DCT TOU DCT ADABI DCT BOKNO DCT DIBES DCT VIQAQ DCT TSU UN858 OQQAL DCT RANUX/N0452F370 DCT VALEK DCT LUTAX UM163 DIK T856 DEPOK/N0426F230 T856 AFNAF M170 PADBA PADBA4H |
| Aircraft | A320/M-SDE3FGHIRWY/LB1 |
Departure
| Time | 2026-05-05 09:43 |
|---|---|
| Airport | Palma de Mallorca Airport (LEPA) |
Arrival
| Time | 2026-05-05 11:48 |
|---|---|
| Airport | Paderborn Lippstadt Airport (EDLP) |
| Time | Latitude | Longitude | Altitude | Speed | Heading |
|---|---|---|---|---|---|
| 2026-05-05 09:21 | 39.55001 | 2.73440 | 38 ft | 0 kts | 167° |
| 2026-05-05 09:33 | 39.55021 | 2.73433 | 36 ft | 4 kts | 147° |
| 2026-05-05 09:34 | 39.55035 | 2.73409 | 35 ft | 4 kts | 102° |
| 2026-05-05 09:34 | 39.55035 | 2.73375 | 36 ft | 4 kts | 82° |
| 2026-05-05 09:34 | 39.55033 | 2.73341 | 35 ft | 4 kts | 96° |
| 2026-05-05 09:34 | 39.55035 | 2.73326 | 35 ft | 0 kts | 95° |
| 2026-05-05 09:37 | 39.55035 | 2.73327 | 38 ft | 1 kts | 95° |
| 2026-05-05 09:37 | 39.55033 | 2.73348 | 38 ft | 5 kts | 92° |
| 2026-05-05 09:38 | 39.55046 | 2.73411 | 36 ft | 10 kts | 62° |
| 2026-05-05 09:38 | 39.55089 | 2.73503 | 38 ft | 14 kts | 59° |
| 2026-05-05 09:38 | 39.55147 | 2.73625 | 38 ft | 17 kts | 58° |
| 2026-05-05 09:38 | 39.55164 | 2.73761 | 37 ft | 17 kts | 111° |
| 2026-05-05 09:39 | 39.55226 | 2.73814 | 38 ft | 9 kts | 319° |
| 2026-05-05 09:39 | 39.55290 | 2.73765 | 37 ft | 13 kts | 328° |
| 2026-05-05 09:39 | 39.55382 | 2.73687 | 38 ft | 18 kts | 330° |
| 2026-05-05 09:39 | 39.55507 | 2.73589 | 38 ft | 24 kts | 328° |
| 2026-05-05 09:40 | 39.55623 | 2.73501 | 38 ft | 17 kts | 339° |
| 2026-05-05 09:40 | 39.55700 | 2.73595 | 37 ft | 19 kts | 58° |
| 2026-05-05 09:40 | 39.55775 | 2.73757 | 38 ft | 24 kts | 59° |
| 2026-05-05 09:40 | 39.55839 | 2.73889 | 38 ft | 11 kts | 53° |
| 2026-05-05 09:41 | 39.55898 | 2.73899 | 37 ft | 11 kts | 325° |
| 2026-05-05 09:41 | 39.55944 | 2.73857 | 38 ft | 10 kts | 325° |
| 2026-05-05 09:41 | 39.55986 | 2.73820 | 38 ft | 6 kts | 325° |
| 2026-05-05 09:41 | 39.55998 | 2.73785 | 38 ft | 3 kts | 259° |
| 2026-05-05 09:42 | 39.55990 | 2.73765 | 38 ft | 0 kts | 239° |
| 2026-05-05 09:42 | 39.55989 | 2.73761 | 38 ft | 3 kts | 239° |
| 2026-05-05 09:42 | 39.55861 | 2.73491 | 37 ft | 72 kts | 239° |
| 2026-05-05 09:43 | 39.55490 | 2.72703 | 38 ft | 131 kts | 238° |
| 2026-05-05 09:43 | 39.54948 | 2.71548 | 304 ft | 153 kts | 238° |
| 2026-05-05 09:43 | 39.54393 | 2.70392 | 1029 ft | 152 kts | 236° |
| 2026-05-05 09:43 | 39.53803 | 2.69199 | 1553 ft | 167 kts | 235° |
| 2026-05-05 09:44 | 39.53123 | 2.67877 | 1908 ft | 184 kts | 233° |
| 2026-05-05 09:44 | 39.52370 | 2.66453 | 2327 ft | 199 kts | 233° |
| 2026-05-05 09:44 | 39.51569 | 2.64919 | 2792 ft | 211 kts | 234° |
| 2026-05-05 09:44 | 39.50754 | 2.63318 | 3514 ft | 213 kts | 235° |
| 2026-05-05 09:45 | 39.49935 | 2.61714 | 4266 ft | 216 kts | 235° |
| 2026-05-05 09:45 | 39.49092 | 2.60080 | 4930 ft | 220 kts | 235° |
| 2026-05-05 09:45 | 39.48232 | 2.58423 | 5626 ft | 223 kts | 236° |
| 2026-05-05 09:45 | 39.47368 | 2.56747 | 6352 ft | 225 kts | 236° |
| 2026-05-05 09:46 | 39.46529 | 2.55077 | 7062 ft | 225 kts | 237° |
| 2026-05-05 09:46 | 39.45686 | 2.53366 | 7748 ft | 227 kts | 237° |
| 2026-05-05 09:46 | 39.44972 | 2.51515 | 8240 ft | 242 kts | 257° |
| 2026-05-05 09:46 | 39.45124 | 2.49252 | 8508 ft | 270 kts | 291° |
| 2026-05-05 09:47 | 39.46262 | 2.47230 | 9040 ft | 287 kts | 315° |
| 2026-05-05 09:47 | 39.47846 | 2.45613 | 9809 ft | 294 kts | 322° |
| 2026-05-05 09:47 | 39.49569 | 2.44157 | 10522 ft | 298 kts | 325° |
| 2026-05-05 09:47 | 39.51388 | 2.42688 | 10842 ft | 319 kts | 324° |
| 2026-05-05 09:48 | 39.53308 | 2.41043 | 11030 ft | 342 kts | 322° |
| 2026-05-05 09:48 | 39.55344 | 2.39278 | 11188 ft | 363 kts | 327° |
| 2026-05-05 09:48 | 39.57553 | 2.37664 | 11897 ft | 365 kts | 327° |
| 2026-05-05 09:48 | 39.59766 | 2.36022 | 12664 ft | 367 kts | 326° |
| 2026-05-05 09:49 | 39.61976 | 2.34368 | 13419 ft | 369 kts | 326° |
| 2026-05-05 09:49 | 39.64247 | 2.32658 | 13764 ft | 382 kts | 325° |
| 2026-05-05 09:49 | 39.66562 | 2.30915 | 14286 ft | 387 kts | 325° |
| 2026-05-05 09:49 | 39.68908 | 2.29153 | 14845 ft | 391 kts | 325° |
| 2026-05-05 09:50 | 39.71276 | 2.27381 | 15429 ft | 395 kts | 325° |
| 2026-05-05 09:50 | 39.73668 | 2.25597 | 16025 ft | 397 kts | 324° |
| 2026-05-05 09:50 | 39.76072 | 2.23803 | 16616 ft | 400 kts | 324° |
| 2026-05-05 09:50 | 39.78500 | 2.21988 | 17201 ft | 403 kts | 324° |
| 2026-05-05 09:51 | 39.80905 | 2.20184 | 17781 ft | 406 kts | 324° |
| 2026-05-05 09:51 | 39.83361 | 2.18337 | 18335 ft | 409 kts | 323° |
| 2026-05-05 09:51 | 39.85860 | 2.16455 | 18827 ft | 412 kts | 323° |
| 2026-05-05 09:51 | 39.88347 | 2.14579 | 19297 ft | 414 kts | 323° |
| 2026-05-05 09:52 | 39.90819 | 2.12713 | 19752 ft | 417 kts | 323° |
| 2026-05-05 09:52 | 39.93335 | 2.10811 | 20214 ft | 420 kts | 323° |
| 2026-05-05 09:52 | 39.95868 | 2.08897 | 20661 ft | 422 kts | 323° |
| 2026-05-05 09:52 | 39.98416 | 2.06971 | 21092 ft | 425 kts | 323° |
| 2026-05-05 09:53 | 40.00981 | 2.05036 | 21501 ft | 427 kts | 323° |
| 2026-05-05 09:53 | 40.03563 | 2.03086 | 21911 ft | 430 kts | 323° |
| 2026-05-05 09:53 | 40.06157 | 2.01125 | 22305 ft | 432 kts | 322° |
| 2026-05-05 09:53 | 40.08711 | 1.99191 | 22678 ft | 435 kts | 322° |
| 2026-05-05 09:54 | 40.11337 | 1.97200 | 23055 ft | 437 kts | 322° |
| 2026-05-05 09:54 | 40.14022 | 1.95281 | 23410 ft | 445 kts | 328° |
| 2026-05-05 09:54 | 40.16955 | 1.93848 | 23731 ft | 457 kts | 337° |
| 2026-05-05 09:54 | 40.20108 | 1.92992 | 24026 ft | 466 kts | 343° |
| 2026-05-05 09:55 | 40.23312 | 1.92266 | 24334 ft | 468 kts | 342° |
| 2026-05-05 09:55 | 40.26522 | 1.91529 | 24631 ft | 470 kts | 342° |
| 2026-05-05 09:55 | 40.29751 | 1.90782 | 24929 ft | 472 kts | 342° |
| 2026-05-05 09:55 | 40.32997 | 1.90027 | 25208 ft | 474 kts | 342° |
| 2026-05-05 09:56 | 40.36250 | 1.89263 | 25481 ft | 476 kts | 342° |
| 2026-05-05 09:56 | 40.39517 | 1.88488 | 25742 ft | 478 kts | 341° |
| 2026-05-05 09:56 | 40.42791 | 1.87712 | 26001 ft | 480 kts | 341° |
| 2026-05-05 09:56 | 40.46088 | 1.86937 | 26258 ft | 482 kts | 341° |
| 2026-05-05 09:57 | 40.49389 | 1.86167 | 26507 ft | 483 kts | 341° |
| 2026-05-05 09:57 | 40.52708 | 1.85397 | 26742 ft | 485 kts | 341° |
| 2026-05-05 09:57 | 40.56034 | 1.84626 | 26983 ft | 486 kts | 341° |
| 2026-05-05 09:57 | 40.59364 | 1.83851 | 27280 ft | 485 kts | 341° |
| 2026-05-05 09:58 | 40.62685 | 1.83075 | 27613 ft | 484 kts | 341° |
| 2026-05-05 09:58 | 40.66000 | 1.82297 | 27952 ft | 483 kts | 341° |
| 2026-05-05 09:58 | 40.69308 | 1.81518 | 28288 ft | 482 kts | 341° |
| 2026-05-05 09:58 | 40.72568 | 1.80750 | 28633 ft | 481 kts | 341° |
| 2026-05-05 09:59 | 40.75857 | 1.79976 | 28975 ft | 480 kts | 341° |
| 2026-05-05 09:59 | 40.79150 | 1.79198 | 29316 ft | 479 kts | 341° |
| 2026-05-05 09:59 | 40.82424 | 1.78425 | 29677 ft | 478 kts | 341° |
| 2026-05-05 09:59 | 40.85701 | 1.77652 | 30023 ft | 477 kts | 340° |
| 2026-05-05 10:00 | 40.88960 | 1.76879 | 30320 ft | 477 kts | 340° |
| 2026-05-05 10:00 | 40.92229 | 1.76102 | 30607 ft | 476 kts | 340° |
| 2026-05-05 10:00 | 40.95487 | 1.75329 | 30884 ft | 476 kts | 340° |
| 2026-05-05 10:00 | 40.98745 | 1.74557 | 31164 ft | 475 kts | 340° |
| 2026-05-05 10:01 | 41.01993 | 1.73785 | 31447 ft | 475 kts | 340° |
| 2026-05-05 10:01 | 41.05244 | 1.73015 | 31730 ft | 475 kts | 341° |
| 2026-05-05 10:01 | 41.08507 | 1.72342 | 32020 ft | 476 kts | 343° |
| 2026-05-05 10:01 | 41.11806 | 1.71792 | 32308 ft | 478 kts | 345° |
| 2026-05-05 10:02 | 41.15118 | 1.71327 | 32603 ft | 478 kts | 345° |
| 2026-05-05 10:02 | 41.18422 | 1.70895 | 32891 ft | 478 kts | 346° |
| 2026-05-05 10:02 | 41.21731 | 1.70459 | 33175 ft | 477 kts | 345° |
| 2026-05-05 10:02 | 41.25039 | 1.70000 | 33436 ft | 477 kts | 345° |
| 2026-05-05 10:03 | 41.28327 | 1.69513 | 33730 ft | 476 kts | 345° |
| 2026-05-05 10:03 | 41.31617 | 1.68998 | 34002 ft | 475 kts | 344° |
| 2026-05-05 10:03 | 41.34899 | 1.68473 | 34243 ft | 475 kts | 345° |
| 2026-05-05 10:03 | 41.38173 | 1.67948 | 34487 ft | 474 kts | 345° |
| 2026-05-05 10:04 | 41.41441 | 1.67426 | 34724 ft | 474 kts | 345° |
| 2026-05-05 10:04 | 41.44725 | 1.66909 | 34949 ft | 473 kts | 345° |
| 2026-05-05 10:04 | 41.47990 | 1.66399 | 35165 ft | 473 kts | 345° |
| 2026-05-05 10:04 | 41.51259 | 1.65893 | 35366 ft | 473 kts | 345° |
| 2026-05-05 10:05 | 41.54530 | 1.65385 | 35583 ft | 473 kts | 345° |
| 2026-05-05 10:05 | 41.57754 | 1.64884 | 35787 ft | 472 kts | 345° |
| 2026-05-05 10:05 | 41.61020 | 1.64374 | 35930 ft | 473 kts | 345° |
| 2026-05-05 10:05 | 41.64301 | 1.63857 | 35960 ft | 476 kts | 345° |
| 2026-05-05 10:06 | 41.70899 | 1.62817 | 35955 ft | 478 kts | 345° |
| 2026-05-05 10:06 | 41.77517 | 1.61772 | 35957 ft | 480 kts | 345° |
| 2026-05-05 10:07 | 41.84150 | 1.60721 | 35967 ft | 481 kts | 345° |
| 2026-05-05 10:07 | 41.90808 | 1.59676 | 35973 ft | 482 kts | 345° |
| 2026-05-05 10:08 | 41.97455 | 1.58635 | 35976 ft | 482 kts | 345° |
| 2026-05-05 10:08 | 42.04120 | 1.57575 | 35974 ft | 482 kts | 345° |
| 2026-05-05 10:09 | 42.10790 | 1.56513 | 35958 ft | 482 kts | 345° |
| 2026-05-05 10:09 | 42.17462 | 1.55451 | 35966 ft | 483 kts | 345° |
| 2026-05-05 10:10 | 42.24125 | 1.54389 | 35975 ft | 483 kts | 346° |
| 2026-05-05 10:10 | 42.30813 | 1.53317 | 35985 ft | 483 kts | 346° |
| 2026-05-05 10:11 | 42.37448 | 1.52254 | 35983 ft | 483 kts | 346° |
| 2026-05-05 10:11 | 42.44133 | 1.51183 | 35984 ft | 484 kts | 346° |
| 2026-05-05 10:12 | 42.50809 | 1.50109 | 35973 ft | 483 kts | 346° |
| 2026-05-05 10:12 | 42.57483 | 1.49031 | 35971 ft | 483 kts | 346° |
| 2026-05-05 10:13 | 42.64156 | 1.47959 | 35955 ft | 482 kts | 346° |
| 2026-05-05 10:13 | 42.70819 | 1.46887 | 35956 ft | 483 kts | 346° |
| 2026-05-05 10:14 | 42.77489 | 1.45814 | 35956 ft | 482 kts | 346° |
| 2026-05-05 10:14 | 42.84145 | 1.44734 | 35964 ft | 481 kts | 346° |
| 2026-05-05 10:15 | 42.90798 | 1.43653 | 35970 ft | 482 kts | 346° |
| 2026-05-05 10:15 | 42.97457 | 1.42579 | 35969 ft | 481 kts | 347° |
| 2026-05-05 10:16 | 43.04107 | 1.41501 | 35973 ft | 482 kts | 347° |
| 2026-05-05 10:16 | 43.10719 | 1.40414 | 35988 ft | 481 kts | 347° |
| 2026-05-05 10:17 | 43.17415 | 1.39323 | 35984 ft | 481 kts | 347° |
| 2026-05-05 10:17 | 43.24031 | 1.38247 | 35982 ft | 482 kts | 347° |
| 2026-05-05 10:18 | 43.30686 | 1.37156 | 35982 ft | 481 kts | 347° |
| 2026-05-05 10:18 | 43.37331 | 1.36062 | 35980 ft | 481 kts | 347° |
| 2026-05-05 10:19 | 43.43979 | 1.34977 | 35987 ft | 481 kts | 348° |
| 2026-05-05 10:19 | 43.50627 | 1.33877 | 35987 ft | 481 kts | 348° |
| 2026-05-05 10:20 | 43.57271 | 1.32776 | 35987 ft | 481 kts | 348° |
| 2026-05-05 10:20 | 43.63904 | 1.31672 | 35992 ft | 481 kts | 348° |
| 2026-05-05 10:21 | 43.70534 | 1.30499 | 35994 ft | 479 kts | 346° |
| 2026-05-05 10:21 | 43.77084 | 1.28873 | 35992 ft | 477 kts | 344° |
| 2026-05-05 10:22 | 43.82486 | 1.27345 | 35990 ft | 477 kts | 343° |
| 2026-05-05 10:22 | 43.89004 | 1.25551 | 35986 ft | 477 kts | 345° |
| 2026-05-05 10:23 | 43.96594 | 1.23584 | 35986 ft | 478 kts | 345° |
| 2026-05-05 10:23 | 44.03132 | 1.21922 | 35990 ft | 478 kts | 345° |
| 2026-05-05 10:24 | 44.08598 | 1.20510 | 35990 ft | 477 kts | 345° |
| 2026-05-05 10:24 | 44.15083 | 1.18805 | 35988 ft | 477 kts | 345° |
| 2026-05-05 10:25 | 44.21595 | 1.17102 | 35988 ft | 476 kts | 345° |
| 2026-05-05 10:25 | 44.28103 | 1.15399 | 35987 ft | 476 kts | 345° |
| 2026-05-05 10:26 | 44.34620 | 1.13686 | 35986 ft | 476 kts | 346° |
| 2026-05-05 10:26 | 44.41149 | 1.12098 | 35983 ft | 477 kts | 349° |
| 2026-05-05 10:27 | 44.47756 | 1.11074 | 35977 ft | 478 kts | 351° |
| 2026-05-05 10:27 | 44.54386 | 1.10222 | 35976 ft | 478 kts | 351° |
| 2026-05-05 10:28 | 44.61002 | 1.09255 | 35976 ft | 477 kts | 351° |
| 2026-05-05 10:28 | 44.67601 | 1.08193 | 35973 ft | 477 kts | 350° |
| 2026-05-05 10:29 | 44.74196 | 1.07122 | 35968 ft | 477 kts | 351° |
| 2026-05-05 10:29 | 44.80791 | 1.06081 | 35961 ft | 477 kts | 351° |
| 2026-05-05 10:30 | 44.87385 | 1.05044 | 35961 ft | 477 kts | 351° |
| 2026-05-05 10:30 | 44.93988 | 1.03999 | 35958 ft | 477 kts | 351° |
| 2026-05-05 10:31 | 45.00593 | 1.02947 | 35954 ft | 477 kts | 351° |
| 2026-05-05 10:31 | 45.07148 | 1.01890 | 35955 ft | 477 kts | 351° |
| 2026-05-05 10:32 | 45.13750 | 1.00824 | 35959 ft | 478 kts | 351° |
| 2026-05-05 10:32 | 45.20355 | 0.99770 | 35962 ft | 478 kts | 351° |
| 2026-05-05 10:33 | 45.26962 | 0.98714 | 35960 ft | 478 kts | 351° |
| 2026-05-05 10:33 | 45.33562 | 0.97649 | 35957 ft | 477 kts | 351° |
| 2026-05-05 10:34 | 45.40168 | 0.96576 | 35953 ft | 477 kts | 351° |
| 2026-05-05 10:34 | 45.46771 | 0.95508 | 35951 ft | 477 kts | 352° |
| 2026-05-05 10:35 | 45.53364 | 0.94440 | 35944 ft | 477 kts | 352° |
| 2026-05-05 10:35 | 45.59971 | 0.93371 | 35943 ft | 477 kts | 352° |
| 2026-05-05 10:36 | 45.66571 | 0.92306 | 35943 ft | 477 kts | 352° |
| 2026-05-05 10:36 | 45.73173 | 0.91227 | 35943 ft | 477 kts | 352° |
| 2026-05-05 10:37 | 45.79771 | 0.90143 | 35939 ft | 477 kts | 352° |
| 2026-05-05 10:37 | 45.86359 | 0.89062 | 35941 ft | 477 kts | 352° |
| 2026-05-05 10:38 | 45.92954 | 0.87968 | 35935 ft | 477 kts | 352° |
| 2026-05-05 10:38 | 45.99548 | 0.86875 | 35934 ft | 477 kts | 352° |
| 2026-05-05 10:39 | 46.06101 | 0.85788 | 35930 ft | 477 kts | 352° |
| 2026-05-05 10:39 | 46.12693 | 0.84692 | 35922 ft | 477 kts | 352° |
| 2026-05-05 10:40 | 46.19284 | 0.83606 | 35915 ft | 477 kts | 352° |
| 2026-05-05 10:40 | 46.25877 | 0.82502 | 35913 ft | 477 kts | 352° |
| 2026-05-05 10:41 | 46.32467 | 0.81402 | 35913 ft | 477 kts | 353° |
| 2026-05-05 10:41 | 46.39056 | 0.80306 | 35911 ft | 476 kts | 353° |
| 2026-05-05 10:42 | 46.48935 | 0.78646 | 35903 ft | 476 kts | 353° |
| 2026-05-05 10:43 | 46.55519 | 0.77541 | 35905 ft | 476 kts | 353° |
| 2026-05-05 10:43 | 46.62100 | 0.76433 | 35894 ft | 476 kts | 353° |
| 2026-05-05 10:44 | 46.68680 | 0.75322 | 35899 ft | 476 kts | 353° |
| 2026-05-05 10:44 | 46.75214 | 0.74212 | 35894 ft | 476 kts | 353° |
| 2026-05-05 10:45 | 46.81792 | 0.73092 | 35891 ft | 476 kts | 353° |
| 2026-05-05 10:45 | 46.88365 | 0.71965 | 35883 ft | 476 kts | 353° |
| 2026-05-05 10:46 | 46.94940 | 0.70845 | 35881 ft | 476 kts | 353° |
| 2026-05-05 10:46 | 47.01542 | 0.70271 | 35874 ft | 475 kts | 5° |
| 2026-05-05 10:47 | 47.07934 | 0.72475 | 35864 ft | 472 kts | 24° |
| 2026-05-05 10:47 | 47.13651 | 0.77127 | 35861 ft | 470 kts | 33° |
| 2026-05-05 10:48 | 47.19247 | 0.82131 | 35854 ft | 471 kts | 33° |
| 2026-05-05 10:48 | 47.24850 | 0.87137 | 35856 ft | 471 kts | 33° |
| 2026-05-05 10:49 | 47.30444 | 0.92147 | 35855 ft | 471 kts | 33° |
| 2026-05-05 10:49 | 47.36039 | 0.97175 | 35859 ft | 471 kts | 33° |
| 2026-05-05 10:50 | 47.41637 | 1.02227 | 35859 ft | 471 kts | 33° |
| 2026-05-05 10:50 | 47.47234 | 1.07299 | 35866 ft | 472 kts | 33° |
| 2026-05-05 10:51 | 47.52862 | 1.12307 | 35864 ft | 472 kts | 31° |
| 2026-05-05 10:51 | 47.58626 | 1.16853 | 35855 ft | 473 kts | 28° |
| 2026-05-05 10:52 | 47.64541 | 1.21272 | 35859 ft | 474 kts | 28° |
| 2026-05-05 10:52 | 47.70349 | 1.25734 | 35854 ft | 473 kts | 29° |
| 2026-05-05 10:53 | 47.76158 | 1.30317 | 35843 ft | 472 kts | 30° |
| 2026-05-05 10:53 | 47.81955 | 1.34923 | 35831 ft | 472 kts | 30° |
| 2026-05-05 10:54 | 47.87753 | 1.39526 | 35824 ft | 472 kts | 30° |
| 2026-05-05 10:54 | 47.93568 | 1.44134 | 35819 ft | 473 kts | 29° |
| 2026-05-05 10:55 | 47.99370 | 1.48744 | 35817 ft | 473 kts | 30° |
| 2026-05-05 10:55 | 48.05176 | 1.53375 | 35818 ft | 473 kts | 30° |
| 2026-05-05 10:56 | 48.10990 | 1.58006 | 35816 ft | 473 kts | 30° |
| 2026-05-05 10:56 | 48.16800 | 1.62641 | 35813 ft | 473 kts | 30° |
| 2026-05-05 10:57 | 48.22596 | 1.67297 | 35813 ft | 472 kts | 30° |
| 2026-05-05 10:57 | 48.28386 | 1.71956 | 35819 ft | 472 kts | 30° |
| 2026-05-05 10:58 | 48.34167 | 1.76627 | 35822 ft | 472 kts | 30° |
| 2026-05-05 10:58 | 48.39920 | 1.81281 | 35829 ft | 472 kts | 30° |
| 2026-05-05 10:59 | 48.45703 | 1.85969 | 35835 ft | 472 kts | 30° |
| 2026-05-05 10:59 | 48.51227 | 1.90451 | 35845 ft | 472 kts | 30° |
| 2026-05-05 11:00 | 48.57010 | 1.95158 | 35851 ft | 472 kts | 30° |
| 2026-05-05 11:00 | 48.62787 | 1.99889 | 35851 ft | 472 kts | 30° |
| 2026-05-05 11:01 | 48.68452 | 2.04563 | 35856 ft | 472 kts | 32° |
| 2026-05-05 11:01 | 48.73335 | 2.10589 | 35861 ft | 466 kts | 51° |
| 2026-05-05 11:02 | 48.76753 | 2.18791 | 35857 ft | 459 kts | 70° |
| 2026-05-05 11:02 | 48.78593 | 2.27988 | 35856 ft | 456 kts | 77° |
| 2026-05-05 11:03 | 48.80255 | 2.37274 | 35853 ft | 456 kts | 78° |
| 2026-05-05 11:03 | 48.81907 | 2.46563 | 35856 ft | 457 kts | 78° |
| 2026-05-05 11:04 | 48.83559 | 2.55864 | 35857 ft | 457 kts | 78° |
| 2026-05-05 11:04 | 48.85211 | 2.65198 | 35862 ft | 458 kts | 78° |
| 2026-05-05 11:05 | 48.86842 | 2.74466 | 35855 ft | 457 kts | 78° |
| 2026-05-05 11:05 | 48.88468 | 2.83797 | 35858 ft | 457 kts | 78° |
| 2026-05-05 11:06 | 48.90096 | 2.93150 | 35855 ft | 458 kts | 78° |
| 2026-05-05 11:06 | 48.91719 | 3.02526 | 35854 ft | 458 kts | 78° |
| 2026-05-05 11:07 | 48.93330 | 3.11894 | 35852 ft | 458 kts | 78° |
| 2026-05-05 11:07 | 48.94931 | 3.21261 | 35850 ft | 458 kts | 78° |
| 2026-05-05 11:08 | 48.96525 | 3.30645 | 35850 ft | 458 kts | 78° |
| 2026-05-05 11:08 | 48.98107 | 3.40034 | 35848 ft | 458 kts | 79° |
| 2026-05-05 11:09 | 48.99689 | 3.49454 | 35852 ft | 459 kts | 79° |
| 2026-05-05 11:09 | 49.01269 | 3.58865 | 35855 ft | 459 kts | 79° |
| 2026-05-05 11:10 | 49.02841 | 3.68291 | 35855 ft | 459 kts | 79° |
| 2026-05-05 11:10 | 49.04403 | 3.77716 | 35861 ft | 459 kts | 79° |
| 2026-05-05 11:11 | 49.05950 | 3.87110 | 35861 ft | 459 kts | 79° |
| 2026-05-05 11:11 | 49.07511 | 3.96617 | 35867 ft | 460 kts | 79° |
| 2026-05-05 11:12 | 49.09053 | 4.06086 | 35863 ft | 460 kts | 79° |
| 2026-05-05 11:12 | 49.10585 | 4.15548 | 35878 ft | 459 kts | 79° |
| 2026-05-05 11:13 | 49.12095 | 4.24966 | 35862 ft | 460 kts | 79° |
| 2026-05-05 11:13 | 49.13610 | 4.34435 | 35863 ft | 460 kts | 77° |
| 2026-05-05 11:14 | 49.15912 | 4.43600 | 35850 ft | 463 kts | 70° |
| 2026-05-05 11:14 | 49.18391 | 4.52692 | 35837 ft | 463 kts | 71° |
| 2026-05-05 11:15 | 49.20845 | 4.61796 | 35835 ft | 463 kts | 71° |
| 2026-05-05 11:15 | 49.22896 | 4.69427 | 35837 ft | 463 kts | 71° |
| 2026-05-05 11:16 | 49.25346 | 4.78562 | 35848 ft | 464 kts | 71° |
| 2026-05-05 11:16 | 49.27773 | 4.87651 | 35838 ft | 464 kts | 71° |
| 2026-05-05 11:17 | 49.30206 | 4.96814 | 35836 ft | 464 kts | 71° |
| 2026-05-05 11:17 | 49.32634 | 5.05991 | 35849 ft | 465 kts | 71° |
| 2026-05-05 11:18 | 49.35069 | 5.15194 | 35846 ft | 466 kts | 71° |
| 2026-05-05 11:18 | 49.37495 | 5.24405 | 35843 ft | 465 kts | 71° |
| 2026-05-05 11:19 | 49.39903 | 5.33630 | 35840 ft | 466 kts | 71° |
| 2026-05-05 11:19 | 49.42305 | 5.42875 | 35845 ft | 467 kts | 71° |
| 2026-05-05 11:20 | 49.44715 | 5.52135 | 35841 ft | 467 kts | 72° |
| 2026-05-05 11:20 | 49.47122 | 5.61425 | 35833 ft | 467 kts | 72° |
| 2026-05-05 11:21 | 49.49590 | 5.70672 | 35843 ft | 469 kts | 66° |
| 2026-05-05 11:21 | 49.53381 | 5.78909 | 35837 ft | 477 kts | 48° |
| 2026-05-05 11:22 | 49.58632 | 5.85259 | 35897 ft | 484 kts | 34° |
| 2026-05-05 11:22 | 49.64305 | 5.90919 | 35840 ft | 492 kts | 34° |
| 2026-05-05 11:23 | 49.70063 | 5.96726 | 35823 ft | 498 kts | 34° |
| 2026-05-05 11:23 | 49.75826 | 6.02542 | 35860 ft | 490 kts | 34° |
| 2026-05-05 11:24 | 49.81590 | 6.08104 | 35861 ft | 487 kts | 31° |
| 2026-05-05 11:24 | 49.87523 | 6.13191 | 35854 ft | 487 kts | 29° |
| 2026-05-05 11:25 | 49.93498 | 6.18178 | 35853 ft | 487 kts | 29° |
| 2026-05-05 11:25 | 49.99427 | 6.23288 | 35842 ft | 487 kts | 30° |
| 2026-05-05 11:26 | 50.05317 | 6.28481 | 35837 ft | 487 kts | 30° |
| 2026-05-05 11:26 | 50.11213 | 6.33693 | 35836 ft | 488 kts | 30° |
| 2026-05-05 11:27 | 50.17123 | 6.38895 | 35831 ft | 488 kts | 30° |
| 2026-05-05 11:27 | 50.23040 | 6.44112 | 35829 ft | 489 kts | 30° |
| 2026-05-05 11:28 | 50.28917 | 6.49325 | 35824 ft | 489 kts | 30° |
| 2026-05-05 11:28 | 50.34836 | 6.54587 | 35638 ft | 490 kts | 30° |
| 2026-05-05 11:28 | 50.37803 | 6.57228 | 35392 ft | 490 kts | 30° |
| 2026-05-05 11:29 | 50.40775 | 6.59877 | 35146 ft | 491 kts | 30° |
| 2026-05-05 11:29 | 50.43743 | 6.62522 | 34903 ft | 492 kts | 30° |
| 2026-05-05 11:29 | 50.46728 | 6.65179 | 34660 ft | 493 kts | 30° |
| 2026-05-05 11:29 | 50.49699 | 6.67827 | 34428 ft | 493 kts | 30° |
| 2026-05-05 11:30 | 50.52690 | 6.70506 | 34185 ft | 494 kts | 30° |
| 2026-05-05 11:30 | 50.55676 | 6.73193 | 33946 ft | 495 kts | 30° |
| 2026-05-05 11:30 | 50.58657 | 6.75881 | 33690 ft | 495 kts | 30° |
| 2026-05-05 11:30 | 50.61649 | 6.78578 | 33409 ft | 495 kts | 29° |
| 2026-05-05 11:31 | 50.64634 | 6.81272 | 33131 ft | 495 kts | 29° |
| 2026-05-05 11:31 | 50.67623 | 6.83968 | 32867 ft | 494 kts | 29° |
| 2026-05-05 11:31 | 50.70598 | 6.86654 | 32598 ft | 494 kts | 29° |
| 2026-05-05 11:31 | 50.73580 | 6.89353 | 31826 ft | 495 kts | 29° |
| 2026-05-05 11:32 | 50.76593 | 6.92080 | 30573 ft | 501 kts | 29° |
| 2026-05-05 11:32 | 50.79602 | 6.94814 | 29493 ft | 499 kts | 29° |
| 2026-05-05 11:32 | 50.82604 | 6.97550 | 28322 ft | 497 kts | 30° |
| 2026-05-05 11:32 | 50.85600 | 7.00287 | 27193 ft | 495 kts | 30° |
| 2026-05-05 11:33 | 50.88572 | 7.03004 | 25775 ft | 490 kts | 30° |
| 2026-05-05 11:33 | 50.91520 | 7.05700 | 23892 ft | 491 kts | 31° |
| 2026-05-05 11:33 | 50.94482 | 7.08411 | 22816 ft | 488 kts | 31° |
| 2026-05-05 11:33 | 50.95436 | 7.09279 | 22488 ft | 486 kts | 30° |
| 2026-05-05 11:34 | 50.96619 | 7.10336 | 22079 ft | 484 kts | 30° |
| 2026-05-05 11:34 | 50.99533 | 7.12959 | 21095 ft | 479 kts | 31° |
| 2026-05-05 11:34 | 51.02169 | 7.16122 | 20123 ft | 474 kts | 46° |
| 2026-05-05 11:35 | 51.04263 | 7.20105 | 19202 ft | 468 kts | 53° |
| 2026-05-05 11:35 | 51.06236 | 7.24185 | 18382 ft | 459 kts | 53° |
| 2026-05-05 11:35 | 51.08146 | 7.28161 | 17397 ft | 447 kts | 53° |
| 2026-05-05 11:35 | 51.10014 | 7.32067 | 16458 ft | 440 kts | 53° |
| 2026-05-05 11:36 | 51.11856 | 7.35925 | 15570 ft | 435 kts | 53° |
| 2026-05-05 11:36 | 51.13685 | 7.39767 | 14833 ft | 434 kts | 53° |
| 2026-05-05 11:36 | 51.15489 | 7.43592 | 14113 ft | 431 kts | 55° |
| 2026-05-05 11:36 | 51.17139 | 7.47550 | 13377 ft | 427 kts | 57° |
| 2026-05-05 11:37 | 51.18759 | 7.51501 | 12589 ft | 424 kts | 57° |
| 2026-05-05 11:37 | 51.20359 | 7.55398 | 11794 ft | 413 kts | 58° |
| 2026-05-05 11:37 | 51.21921 | 7.59189 | 11053 ft | 407 kts | 58° |
| 2026-05-05 11:37 | 51.23470 | 7.62939 | 10316 ft | 401 kts | 58° |
| 2026-05-05 11:38 | 51.24966 | 7.66545 | 9840 ft | 374 kts | 58° |
| 2026-05-05 11:38 | 51.26342 | 7.69847 | 9633 ft | 342 kts | 58° |
| 2026-05-05 11:38 | 51.27616 | 7.72892 | 9419 ft | 316 kts | 58° |
| 2026-05-05 11:38 | 51.28798 | 7.75711 | 9178 ft | 299 kts | 58° |
| 2026-05-05 11:39 | 51.29948 | 7.78451 | 8893 ft | 295 kts | 57° |
| 2026-05-05 11:39 | 51.31071 | 7.81159 | 8604 ft | 292 kts | 58° |
| 2026-05-05 11:39 | 51.32175 | 7.83887 | 8322 ft | 291 kts | 58° |
| 2026-05-05 11:39 | 51.33268 | 7.86592 | 8049 ft | 290 kts | 59° |
| 2026-05-05 11:40 | 51.34362 | 7.89294 | 7761 ft | 289 kts | 59° |
| 2026-05-05 11:40 | 51.35448 | 7.91982 | 7481 ft | 287 kts | 58° |
| 2026-05-05 11:40 | 51.36529 | 7.94663 | 7208 ft | 286 kts | 58° |
| 2026-05-05 11:40 | 51.37605 | 7.97338 | 6949 ft | 285 kts | 58° |
| 2026-05-05 11:41 | 51.38678 | 8.00003 | 6674 ft | 285 kts | 59° |
| 2026-05-05 11:41 | 51.39734 | 8.02629 | 6408 ft | 284 kts | 58° |
| 2026-05-05 11:41 | 51.40796 | 8.05282 | 6132 ft | 282 kts | 59° |
| 2026-05-05 11:41 | 51.41854 | 8.07917 | 5846 ft | 281 kts | 58° |
| 2026-05-05 11:42 | 51.42903 | 8.10542 | 5566 ft | 279 kts | 59° |
| 2026-05-05 11:42 | 51.43942 | 8.13156 | 5285 ft | 278 kts | 58° |
| 2026-05-05 11:42 | 51.44959 | 8.15776 | 5003 ft | 276 kts | 61° |
| 2026-05-05 11:42 | 51.45922 | 8.18479 | 4803 ft | 274 kts | 63° |
| 2026-05-05 11:43 | 51.46767 | 8.21206 | 4638 ft | 273 kts | 65° |
| 2026-05-05 11:43 | 51.47564 | 8.23912 | 4442 ft | 271 kts | 66° |
| 2026-05-05 11:43 | 51.48363 | 8.26648 | 4296 ft | 270 kts | 66° |
| 2026-05-05 11:43 | 51.49157 | 8.29382 | 4168 ft | 270 kts | 66° |
| 2026-05-05 11:44 | 51.49943 | 8.32091 | 4043 ft | 264 kts | 65° |
| 2026-05-05 11:44 | 51.50690 | 8.34684 | 3902 ft | 244 kts | 66° |
| 2026-05-05 11:44 | 51.51399 | 8.37030 | 3781 ft | 227 kts | 61° |
| 2026-05-05 11:44 | 51.52204 | 8.39162 | 3677 ft | 218 kts | 57° |
| 2026-05-05 11:45 | 51.53023 | 8.41164 | 3540 ft | 209 kts | 57° |
| 2026-05-05 11:45 | 51.53801 | 8.43051 | 3270 ft | 197 kts | 56° |
| 2026-05-05 11:45 | 51.54532 | 8.44831 | 3008 ft | 185 kts | 56° |
| 2026-05-05 11:45 | 51.55209 | 8.46480 | 2785 ft | 169 kts | 56° |
| 2026-05-05 11:46 | 51.55824 | 8.47979 | 2577 ft | 153 kts | 56° |
| 2026-05-05 11:46 | 51.56388 | 8.49353 | 2381 ft | 142 kts | 56° |
| 2026-05-05 11:46 | 51.56921 | 8.50657 | 2202 ft | 142 kts | 55° |
| 2026-05-05 11:46 | 51.57478 | 8.51997 | 2039 ft | 146 kts | 54° |
| 2026-05-05 11:47 | 51.58028 | 8.53358 | 1770 ft | 143 kts | 55° |
| 2026-05-05 11:47 | 51.58561 | 8.54653 | 1531 ft | 134 kts | 53° |
| 2026-05-05 11:47 | 51.59067 | 8.55879 | 1278 ft | 130 kts | 55° |
| 2026-05-05 11:47 | 51.59574 | 8.57132 | 1121 ft | 136 kts | 56° |
| 2026-05-05 11:48 | 51.60630 | 8.59719 | 832 ft | 147 kts | 56° |
| 2026-05-05 11:48 | 51.61179 | 8.61064 | 717 ft | 132 kts | 54° |
| 2026-05-05 11:48 | 51.61517 | 8.61897 | 702 ft | 46 kts | 57° |
| 2026-05-05 11:49 | 51.61566 | 8.62017 | 700 ft | 5 kts | 56° |
| 2026-05-05 11:49 | 51.61610 | 8.62124 | 695 ft | 14 kts | 57° |
| 2026-05-05 11:49 | 51.61671 | 8.62272 | 697 ft | 18 kts | 56° |
| 2026-05-05 11:49 | 51.61745 | 8.62456 | 686 ft | 21 kts | 56° |
| 2026-05-05 11:50 | 51.61827 | 8.62657 | 687 ft | 19 kts | 56° |
| 2026-05-05 11:50 | 51.61901 | 8.62844 | 682 ft | 20 kts | 63° |
| 2026-05-05 11:50 | 51.61892 | 8.63033 | 683 ft | 17 kts | 133° |
| 2026-05-05 11:50 | 51.61788 | 8.63035 | 680 ft | 15 kts | 220° |
| 2026-05-05 11:51 | 51.61734 | 8.62917 | 685 ft | 10 kts | 237° |
| 2026-05-05 11:51 | 51.61703 | 8.62837 | 683 ft | 10 kts | 236° |
| 2026-05-05 11:51 | 51.61640 | 8.62682 | 690 ft | 20 kts | 237° |
| 2026-05-05 11:51 | 51.61568 | 8.62507 | 699 ft | 17 kts | 236° |
| 2026-05-05 11:52 | 51.61509 | 8.62363 | 706 ft | 14 kts | 237° |
| 2026-05-05 11:52 | 51.61429 | 8.62166 | 716 ft | 23 kts | 237° |
| 2026-05-05 11:52 | 51.61347 | 8.62022 | 718 ft | 17 kts | 206° |
| 2026-05-05 11:52 | 51.61258 | 8.61986 | 729 ft | 9 kts | 190° |
| 2026-05-05 11:53 | 51.61199 | 8.61957 | 731 ft | 12 kts | 214° |
| 2026-05-05 11:53 | 51.61157 | 8.61898 | 731 ft | 5 kts | 163° |
| 2026-05-05 11:53 | 51.61128 | 8.61919 | 731 ft | 3 kts | 148° |
| 2026-05-05 11:53 | 51.61118 | 8.61929 | 731 ft | 0 kts | 148° |